sensor_id;sensor_type;location;lat;lon;timestamp;pressure;altitude;pressure_sealevel;temperature;humidity
50774;BME280;36745;48.544;8.918;2023-03-01T00:02:54;98016.06;;;-1.23;67.46
50774;BME280;36745;48.544;8.918;2023-03-01T00:06:15;98018.41;;;-1.21;66.77
50774;BME280;36745;48.544;8.918;2023-03-01T00:09:36;98016.19;;;-1.47;67.16
50774;BME280;36745;48.544;8.918;2023-03-01T00:12:56;98022.88;;;-1.57;68.24
50774;BME280;36745;48.544;8.918;2023-03-01T00:16:28;98026.00;;;-1.55;67.95
50774;BME280;36745;48.544;8.918;2023-03-01T00:19:47;98021.06;;;-1.65;68.26
50774;BME280;36745;48.544;8.918;2023-03-01T00:23:07;98019.31;;;-1.73;68.29
50774;BME280;36745;48.544;8.918;2023-03-01T00:26:27;98018.88;;;-1.75;68.41
50774;BME280;36745;48.544;8.918;2023-03-01T00:29:47;98013.16;;;-1.86;68.61
50774;BME280;36745;48.544;8.918;2023-03-01T00:33:07;98015.63;;;-1.93;69.38
50774;BME280;36745;48.544;8.918;2023-03-01T00:36:31;98011.72;;;-1.95;68.81
50774;BME280;36745;48.544;8.918;2023-03-01T00:39:51;98008.34;;;-2.04;69.36
50774;BME280;36745;48.544;8.918;2023-03-01T00:43:10;98005.31;;;-2.03;69.64
50774;BME280;36745;48.544;8.918;2023-03-01T00:46:30;98005.41;;;-1.99;69.86
50774;BME280;36745;48.544;8.918;2023-03-01T00:49:50;98007.53;;;-2.05;70.26
50774;BME280;36745;48.544;8.918;2023-03-01T00:53:10;98002.28;;;-2.01;70.43
50774;BME280;36745;48.544;8.918;2023-03-01T00:56:30;97993.94;;;-2.08;70.30
50774;BME280;36745;48.544;8.918;2023-03-01T00:59:50;97992.41;;;-2.22;69.89
50774;BME280;36745;48.544;8.918;2023-03-01T01:03:11;97994.44;;;-2.31;70.99
50774;BME280;36745;48.544;8.918;2023-03-01T01:06:43;97992.84;;;-2.32;71.07
50774;BME280;36745;48.544;8.918;2023-03-01T01:10:04;97997.69;;;-2.37;70.17
50774;BME280;36745;48.544;8.918;2023-03-01T01:13:24;97996.69;;;-2.45;71.45
50774;BME280;36745;48.544;8.918;2023-03-01T01:16:44;97987.91;;;-2.42;71.38
50774;BME280;36745;48.544;8.918;2023-03-01T01:20:04;97984.78;;;-2.44;71.45
50774;BME280;36745;48.544;8.918;2023-03-01T01:23:24;97975.34;;;-2.50;71.37
50774;BME280;36745;48.544;8.918;2023-03-01T01:26:43;97976.47;;;-2.51;71.20
50774;BME280;36745;48.544;8.918;2023-03-01T01:30:04;97969.28;;;-2.59;71.29
50774;BME280;36745;48.544;8.918;2023-03-01T01:33:24;97962.53;;;-2.65;71.59
50774;BME280;36745;48.544;8.918;2023-03-01T01:36:48;97963.19;;;-2.68;71.90
50774;BME280;36745;48.544;8.918;2023-03-01T01:40:09;97968.16;;;-2.70;72.21
50774;BME280;36745;48.544;8.918;2023-03-01T01:43:38;97960.06;;;-2.70;72.72
50774;BME280;36745;48.544;8.918;2023-03-01T01:47:02;97960.47;;;-2.80;72.47
50774;BME280;36745;48.544;8.918;2023-03-01T01:50:23;97959.72;;;-2.81;72.46
50774;BME280;36745;48.544;8.918;2023-03-01T01:53:44;97960.16;;;-2.79;72.15
50774;BME280;36745;48.544;8.918;2023-03-01T01:57:12;97958.94;;;-2.81;72.94
50774;BME280;36745;48.544;8.918;2023-03-01T02:00:33;97966.13;;;-2.73;72.86
50774;BME280;36745;48.544;8.918;2023-03-01T02:03:53;97965.47;;;-2.70;72.76
50774;BME280;36745;48.544;8.918;2023-03-01T02:07:16;97959.59;;;-2.84;72.54
50774;BME280;36745;48.544;8.918;2023-03-01T02:10:37;97953.66;;;-2.78;73.21
50774;BME280;36745;48.544;8.918;2023-03-01T02:13:59;97951.50;;;-2.72;72.90
50774;BME280;36745;48.544;8.918;2023-03-01T02:17:20;97948.34;;;-2.74;73.33
50774;BME280;36745;48.544;8.918;2023-03-01T02:21:08;97944.53;;;-2.73;73.63
50774;BME280;36745;48.544;8.918;2023-03-01T02:24:49;97942.03;;;-2.42;73.46
50774;BME280;36745;48.544;8.918;2023-03-01T02:31:37;97935.69;;;-2.22;74.36
50774;BME280;36745;48.544;8.918;2023-03-01T02:35:02;97928.47;;;-2.18;74.12
50774;BME280;36745;48.544;8.918;2023-03-01T02:38:26;97922.19;;;-2.22;73.74
50774;BME280;36745;48.544;8.918;2023-03-01T02:41:48;97910.31;;;-2.33;74.27
50774;BME280;36745;48.544;8.918;2023-03-01T02:45:09;97914.28;;;-2.15;74.79
50774;BME280;36745;48.544;8.918;2023-03-01T02:48:43;97906.19;;;-2.15;74.66
50774;BME280;36745;48.544;8.918;2023-03-01T02:55:37;97903.72;;;-1.92;74.69
50774;BME280;36745;48.544;8.918;2023-03-01T02:58:58;97901.06;;;-1.76;75.04
50774;BME280;36745;48.544;8.918;2023-03-01T03:02:23;97907.22;;;-1.63;74.79
50774;BME280;36745;48.544;8.918;2023-03-01T03:05:55;97900.16;;;-1.52;75.11
50774;BME280;36745;48.544;8.918;2023-03-01T03:09:16;97901.81;;;-1.48;74.87
50774;BME280;36745;48.544;8.918;2023-03-01T03:12:36;97884.38;;;-1.35;74.90
50774;BME280;36745;48.544;8.918;2023-03-01T03:15:57;97886.31;;;-1.19;74.59
50774;BME280;36745;48.544;8.918;2023-03-01T03:19:20;97869.91;;;-1.27;74.68
50774;BME280;36745;48.544;8.918;2023-03-01T03:22:40;97883.16;;;-1.21;74.58
50774;BME280;36745;48.544;8.918;2023-03-01T03:26:00;97879.69;;;-1.22;74.55
50774;BME280;36745;48.544;8.918;2023-03-01T03:29:19;97884.03;;;-1.17;74.82
50774;BME280;36745;48.544;8.918;2023-03-01T03:32:40;97885.94;;;-1.02;74.96
50774;BME280;36745;48.544;8.918;2023-03-01T03:36:01;97882.56;;;-0.99;74.77
50774;BME280;36745;48.544;8.918;2023-03-01T03:39:20;97877.38;;;-0.89;74.62
50774;BME280;36745;48.544;8.918;2023-03-01T03:42:41;97878.94;;;-0.72;73.94
50774;BME280;36745;48.544;8.918;2023-03-01T03:46:01;97882.06;;;-0.70;73.73
50774;BME280;36745;48.544;8.918;2023-03-01T03:49:24;97872.97;;;-0.62;73.76
50774;BME280;36745;48.544;8.918;2023-03-01T03:52:44;97873.53;;;-0.53;73.45
50774;BME280;36745;48.544;8.918;2023-03-01T03:56:04;97874.84;;;-0.47;73.08
50774;BME280;36745;48.544;8.918;2023-03-01T03:59:24;97869.59;;;-0.39;72.48
50774;BME280;36745;48.544;8.918;2023-03-01T04:02:45;97867.72;;;-0.35;72.51
50774;BME280;36745;48.544;8.918;2023-03-01T04:06:05;97861.34;;;-0.27;72.21
50774;BME280;36745;48.544;8.918;2023-03-01T04:09:25;97871.22;;;-0.16;72.12
50774;BME280;36745;48.544;8.918;2023-03-01T04:12:45;97860.56;;;-0.28;71.56
50774;BME280;36745;48.544;8.918;2023-03-01T04:16:05;97858.31;;;-0.42;71.94
50774;BME280;36745;48.544;8.918;2023-03-01T04:19:25;97864.22;;;-0.36;72.25
50774;BME280;36745;48.544;8.918;2023-03-01T04:22:46;97860.03;;;-0.33;71.69
50774;BME280;36745;48.544;8.918;2023-03-01T04:26:06;97855.13;;;-0.28;72.07
50774;BME280;36745;48.544;8.918;2023-03-01T04:29:26;97853.56;;;-0.29;72.00
50774;BME280;36745;48.544;8.918;2023-03-01T04:32:47;97851.25;;;-0.27;72.18
50774;BME280;36745;48.544;8.918;2023-03-01T04:36:09;97858.13;;;-0.33;71.77
50774;BME280;36745;48.544;8.918;2023-03-01T04:39:29;97846.69;;;-0.42;72.22
50774;BME280;36745;48.544;8.918;2023-03-01T04:42:49;97844.06;;;-0.38;72.23
50774;BME280;36745;48.544;8.918;2023-03-01T04:46:12;97842.22;;;-0.34;72.67
50774;BME280;36745;48.544;8.918;2023-03-01T04:49:33;97837.94;;;-0.35;72.70
50774;BME280;36745;48.544;8.918;2023-03-01T04:52:53;97846.19;;;-0.09;72.50
50774;BME280;36745;48.544;8.918;2023-03-01T04:56:13;97840.50;;;-0.23;72.28
50774;BME280;36745;48.544;8.918;2023-03-01T04:59:34;97838.09;;;-0.28;72.51
50774;BME280;36745;48.544;8.918;2023-03-01T05:02:57;97845.09;;;-0.27;72.45
50774;BME280;36745;48.544;8.918;2023-03-01T05:06:20;97841.34;;;-0.19;72.61
50774;BME280;36745;48.544;8.918;2023-03-01T05:09:40;97836.09;;;-0.12;72.66
50774;BME280;36745;48.544;8.918;2023-03-01T05:12:59;97831.31;;;-0.19;72.50
50774;BME280;36745;48.544;8.918;2023-03-01T05:16:19;97831.06;;;-0.10;72.71
50774;BME280;36745;48.544;8.918;2023-03-01T05:19:39;97823.69;;;-0.13;72.46
50774;BME280;36745;48.544;8.918;2023-03-01T05:23:02;97829.81;;;-0.16;72.73
50774;BME280;36745;48.544;8.918;2023-03-01T05:26:24;97825.38;;;-0.05;72.56
50774;BME280;36745;48.544;8.918;2023-03-01T05:29:48;97831.81;;;-0.13;72.40
50774;BME280;36745;48.544;8.918;2023-03-01T05:33:08;97832.94;;;-0.14;72.43
50774;BME280;36745;48.544;8.918;2023-03-01T05:36:32;97830.09;;;-0.02;72.63
50774;BME280;36745;48.544;8.918;2023-03-01T05:39:52;97830.94;;;0.02;72.71
50774;BME280;36745;48.544;8.918;2023-03-01T05:43:13;97826.16;;;-0.05;72.22
50774;BME280;36745;48.544;8.918;2023-03-01T05:46:33;97826.94;;;-0.04;72.31
50774;BME280;36745;48.544;8.918;2023-03-01T05:49:53;97830.34;;;0.12;72.58
50774;BME280;36745;48.544;8.918;2023-03-01T05:53:18;97821.81;;;0.10;71.76
50774;BME280;36745;48.544;8.918;2023-03-01T05:56:38;97823.03;;;0.35;71.31
50774;BME280;36745;48.544;8.918;2023-03-01T05:59:58;97828.31;;;0.28;71.33
50774;BME280;36745;48.544;8.918;2023-03-01T06:03:18;97829.66;;;0.15;71.26
50774;BME280;36745;48.544;8.918;2023-03-01T06:06:38;97830.06;;;0.17;71.24
50774;BME280;36745;48.544;8.918;2023-03-01T06:09:58;97826.00;;;0.08;71.07
50774;BME280;36745;48.544;8.918;2023-03-01T06:13:18;97822.66;;;0.14;71.27
50774;BME280;36745;48.544;8.918;2023-03-01T06:16:38;97822.06;;;0.24;70.85
50774;BME280;36745;48.544;8.918;2023-03-01T06:19:58;97830.47;;;0.19;70.16
50774;BME280;36745;48.544;8.918;2023-03-01T06:23:17;97822.91;;;0.28;70.63
50774;BME280;36745;48.544;8.918;2023-03-01T06:26:37;97812.03;;;0.28;70.31
50774;BME280;36745;48.544;8.918;2023-03-01T06:29:57;97811.56;;;0.46;70.20
50774;BME280;36745;48.544;8.918;2023-03-01T06:33:17;97805.19;;;0.34;70.35
50774;BME280;36745;48.544;8.918;2023-03-01T06:36:39;97816.75;;;0.31;69.74
50774;BME280;36745;48.544;8.918;2023-03-01T06:39:59;97804.34;;;0.30;70.29
50774;BME280;36745;48.544;8.918;2023-03-01T06:43:19;97809.16;;;0.40;70.98
50774;BME280;36745;48.544;8.918;2023-03-01T06:46:39;97817.75;;;0.43;70.34
50774;BME280;36745;48.544;8.918;2023-03-01T06:50:00;97811.03;;;0.36;71.19
50774;BME280;36745;48.544;8.918;2023-03-01T06:53:20;97822.56;;;0.53;70.82
50774;BME280;36745;48.544;8.918;2023-03-01T06:56:40;97817.00;;;0.46;70.95
50774;BME280;36745;48.544;8.918;2023-03-01T07:00:00;97819.28;;;0.43;71.02
50774;BME280;36745;48.544;8.918;2023-03-01T07:03:19;97816.56;;;0.43;70.53
50774;BME280;36745;48.544;8.918;2023-03-01T07:06:39;97805.91;;;0.31;70.48
50774;BME280;36745;48.544;8.918;2023-03-01T07:09:59;97802.97;;;0.40;70.49
50774;BME280;36745;48.544;8.918;2023-03-01T07:13:19;97799.06;;;0.37;70.96
50774;BME280;36745;48.544;8.918;2023-03-01T07:16:39;97804.72;;;0.52;71.42
50774;BME280;36745;48.544;8.918;2023-03-01T07:19:59;97799.34;;;0.55;71.26
50774;BME280;36745;48.544;8.918;2023-03-01T07:23:19;97795.78;;;0.74;70.69
50774;BME280;36745;48.544;8.918;2023-03-01T07:26:39;97805.56;;;0.82;70.94
50774;BME280;36745;48.544;8.918;2023-03-01T07:29:58;97798.16;;;0.79;70.11
50774;BME280;36745;48.544;8.918;2023-03-01T07:33:18;97797.56;;;0.89;70.10
50774;BME280;36745;48.544;8.918;2023-03-01T07:36:38;97796.81;;;0.92;70.18
50774;BME280;36745;48.544;8.918;2023-03-01T07:39:58;97789.28;;;0.82;70.15
50774;BME280;36745;48.544;8.918;2023-03-01T07:43:19;97789.84;;;0.91;69.61
50774;BME280;36745;48.544;8.918;2023-03-01T07:46:39;97779.81;;;0.95;69.85
50774;BME280;36745;48.544;8.918;2023-03-01T07:49:59;97778.75;;;1.03;69.31
50774;BME280;36745;48.544;8.918;2023-03-01T07:53:20;97771.53;;;1.14;68.61
50774;BME280;36745;48.544;8.918;2023-03-01T07:56:40;97773.13;;;0.89;68.82
50774;BME280;36745;48.544;8.918;2023-03-01T08:00:00;97768.84;;;0.88;68.72
50774;BME280;36745;48.544;8.918;2023-03-01T08:03:19;97764.34;;;0.99;69.18
50774;BME280;36745;48.544;8.918;2023-03-01T08:06:39;97759.22;;;1.20;68.68
50774;BME280;36745;48.544;8.918;2023-03-01T08:09:59;97769.34;;;1.23;68.57
50774;BME280;36745;48.544;8.918;2023-03-01T08:13:19;97756.81;;;1.15;68.39
50774;BME280;36745;48.544;8.918;2023-03-01T08:16:42;97753.22;;;1.38;68.61
50774;BME280;36745;48.544;8.918;2023-03-01T08:20:02;97760.16;;;1.35;68.28
50774;BME280;36745;48.544;8.918;2023-03-01T08:23:23;97766.34;;;1.32;68.20
50774;BME280;36745;48.544;8.918;2023-03-01T08:26:43;97757.69;;;1.53;68.20
50774;BME280;36745;48.544;8.918;2023-03-01T08:30:03;97759.56;;;1.49;67.88
50774;BME280;36745;48.544;8.918;2023-03-01T08:33:23;97760.50;;;1.60;67.79
50774;BME280;36745;48.544;8.918;2023-03-01T08:36:45;97757.34;;;1.58;67.54
50774;BME280;36745;48.544;8.918;2023-03-01T08:40:05;97760.50;;;1.60;67.13
50774;BME280;36745;48.544;8.918;2023-03-01T08:43:29;97761.47;;;1.78;67.60
50774;BME280;36745;48.544;8.918;2023-03-01T08:46:50;97759.38;;;2.01;67.51
50774;BME280;36745;48.544;8.918;2023-03-01T08:50:10;97761.72;;;1.99;66.21
50774;BME280;36745;48.544;8.918;2023-03-01T08:53:30;97756.84;;;1.82;64.82
50774;BME280;36745;48.544;8.918;2023-03-01T08:56:50;97752.00;;;1.65;64.91
50774;BME280;36745;48.544;8.918;2023-03-01T09:00:10;97741.91;;;1.65;65.36
50774;BME280;36745;48.544;8.918;2023-03-01T09:03:34;97744.34;;;1.74;65.12
50774;BME280;36745;48.544;8.918;2023-03-01T09:06:54;97732.91;;;1.95;65.42
50774;BME280;36745;48.544;8.918;2023-03-01T09:10:13;97727.56;;;2.05;64.62
50774;BME280;36745;48.544;8.918;2023-03-01T09:13:33;97725.25;;;2.07;65.09
50774;BME280;36745;48.544;8.918;2023-03-01T09:16:53;97714.56;;;2.29;65.86
50774;BME280;36745;48.544;8.918;2023-03-01T09:20:13;97717.75;;;2.38;65.42
50774;BME280;36745;48.544;8.918;2023-03-01T09:23:37;97706.84;;;2.34;64.29
50774;BME280;36745;48.544;8.918;2023-03-01T09:26:58;97706.19;;;2.48;65.41
50774;BME280;36745;48.544;8.918;2023-03-01T09:30:18;97706.28;;;2.62;64.25
50774;BME280;36745;48.544;8.918;2023-03-01T09:33:39;97708.16;;;2.54;63.97
50774;BME280;36745;48.544;8.918;2023-03-01T09:36:58;97716.41;;;2.65;63.17
50774;BME280;36745;48.544;8.918;2023-03-01T09:40:22;97710.13;;;2.58;63.56
50774;BME280;36745;48.544;8.918;2023-03-01T09:44:00;97708.56;;;2.53;62.78
50774;BME280;36745;48.544;8.918;2023-03-01T09:47:27;97710.63;;;2.74;63.06
50774;BME280;36745;48.544;8.918;2023-03-01T09:50:48;97697.88;;;2.88;62.94
50774;BME280;36745;48.544;8.918;2023-03-01T09:54:09;97697.81;;;2.74;61.77
50774;BME280;36745;48.544;8.918;2023-03-01T10:01:35;97704.84;;;2.82;62.48
50774;BME280;36745;48.544;8.918;2023-03-01T10:05:19;97694.31;;;2.81;61.36
50774;BME280;36745;48.544;8.918;2023-03-01T10:12:30;97696.47;;;3.16;61.16
50774;BME280;36745;48.544;8.918;2023-03-01T10:15:59;97693.28;;;3.03;61.31
50774;BME280;36745;48.544;8.918;2023-03-01T10:22:53;97674.63;;;3.02;60.34
50774;BME280;36745;48.544;8.918;2023-03-01T10:29:58;97672.38;;;3.18;60.63
50774;BME280;36745;48.544;8.918;2023-03-01T10:33:32;97668.41;;;3.01;61.07
50774;BME280;36745;48.544;8.918;2023-03-01T10:36:57;97670.72;;;2.99;59.91
50774;BME280;36745;48.544;8.918;2023-03-01T10:40:18;97658.28;;;3.09;59.94
50774;BME280;36745;48.544;8.918;2023-03-01T10:43:48;97664.56;;;3.20;60.25
50774;BME280;36745;48.544;8.918;2023-03-01T10:47:20;97655.69;;;3.37;60.10
50774;BME280;36745;48.544;8.918;2023-03-01T10:50:42;97663.13;;;3.44;60.02
50774;BME280;36745;48.544;8.918;2023-03-01T10:54:36;97650.25;;;3.37;59.72
50774;BME280;36745;48.544;8.918;2023-03-01T10:58:21;97637.44;;;3.48;60.05
50774;BME280;36745;48.544;8.918;2023-03-01T11:01:41;97644.41;;;3.42;59.33
50774;BME280;36745;48.544;8.918;2023-03-01T11:08:48;97633.16;;;3.54;58.79
50774;BME280;36745;48.544;8.918;2023-03-01T11:12:14;97636.66;;;3.58;58.51
50774;BME280;36745;48.544;8.918;2023-03-01T11:15:35;97621.13;;;3.76;59.41
50774;BME280;36745;48.544;8.918;2023-03-01T11:18:57;97612.56;;;4.10;59.46
50774;BME280;36745;48.544;8.918;2023-03-01T11:22:19;97607.44;;;4.61;59.08
50774;BME280;36745;48.544;8.918;2023-03-01T11:25:43;97602.56;;;5.81;59.84
50774;BME280;36745;48.544;8.918;2023-03-01T11:29:06;97587.94;;;7.18;58.26
50774;BME280;36745;48.544;8.918;2023-03-01T11:32:28;97589.91;;;6.83;52.68
50774;BME280;36745;48.544;8.918;2023-03-01T11:36:07;97584.81;;;7.46;54.58
50774;BME280;36745;48.544;8.918;2023-03-01T11:39:37;97578.06;;;7.54;52.07
50774;BME280;36745;48.544;8.918;2023-03-01T11:43:08;97561.47;;;8.58;54.74
50774;BME280;36745;48.544;8.918;2023-03-01T12:04:46;97538.66;;;9.00;47.94
50774;BME280;36745;48.544;8.918;2023-03-01T12:26:34;97499.13;;;9.79;46.81
50774;BME280;36745;48.544;8.918;2023-03-01T12:51:59;97440.28;;;9.73;43.69
50774;BME280;36745;48.544;8.918;2023-03-01T13:09:51;97430.91;;;8.50;45.68
50774;BME280;36745;48.544;8.918;2023-03-01T13:13:25;97428.94;;;8.50;44.53
50774;BME280;36745;48.544;8.918;2023-03-01T13:16:46;97425.63;;;7.76;46.06
50774;BME280;36745;48.544;8.918;2023-03-01T13:20:17;97427.94;;;7.54;46.64
50774;BME280;36745;48.544;8.918;2023-03-01T13:23:39;97427.50;;;7.56;47.02
50774;BME280;36745;48.544;8.918;2023-03-01T13:33:54;97427.31;;;7.20;47.11
50774;BME280;36745;48.544;8.918;2023-03-01T13:37:31;97413.69;;;7.16;47.98
50774;BME280;36745;48.544;8.918;2023-03-01T13:47:44;97407.19;;;6.80;48.16
50774;BME280;36745;48.544;8.918;2023-03-01T13:51:09;97425.97;;;6.78;48.06
50774;BME280;36745;48.544;8.918;2023-03-01T13:54:32;97423.97;;;6.82;48.46
50774;BME280;36745;48.544;8.918;2023-03-01T13:57:58;97417.75;;;7.05;48.68
50774;BME280;36745;48.544;8.918;2023-03-01T14:01:26;97414.50;;;7.13;47.87
50774;BME280;36745;48.544;8.918;2023-03-01T14:04:59;97406.16;;;6.67;48.48
50774;BME280;36745;48.544;8.918;2023-03-01T14:08:22;97400.91;;;6.80;48.67
50774;BME280;36745;48.544;8.918;2023-03-01T14:15:54;97416.59;;;6.75;48.58
50774;BME280;36745;48.544;8.918;2023-03-01T14:19:29;97416.50;;;7.09;48.75
50774;BME280;36745;48.544;8.918;2023-03-01T14:22:53;97415.03;;;7.05;48.74
50774;BME280;36745;48.544;8.918;2023-03-01T14:26:20;97412.22;;;7.08;48.39
50774;BME280;36745;48.544;8.918;2023-03-01T14:29:40;97421.84;;;7.20;48.57
50774;BME280;36745;48.544;8.918;2023-03-01T14:33:03;97418.34;;;7.43;48.29
50774;BME280;36745;48.544;8.918;2023-03-01T14:36:28;97422.16;;;7.49;48.22
50774;BME280;36745;48.544;8.918;2023-03-01T14:39:52;97432.28;;;7.29;47.98
50774;BME280;36745;48.544;8.918;2023-03-01T14:43:16;97434.09;;;7.39;48.16
50774;BME280;36745;48.544;8.918;2023-03-01T14:46:44;97432.88;;;7.40;47.98
50774;BME280;36745;48.544;8.918;2023-03-01T14:50:09;97431.38;;;7.35;48.10
50774;BME280;36745;48.544;8.918;2023-03-01T14:53:36;97429.56;;;7.29;48.23
50774;BME280;36745;48.544;8.918;2023-03-01T14:57:00;97434.47;;;7.14;48.00
50774;BME280;36745;48.544;8.918;2023-03-01T15:00:26;97431.31;;;7.15;48.57
50774;BME280;36745;48.544;8.918;2023-03-01T15:03:48;97428.31;;;7.06;48.51
50774;BME280;36745;48.544;8.918;2023-03-01T15:07:12;97419.47;;;6.95;48.77
50774;BME280;36745;48.544;8.918;2023-03-01T15:10:35;97413.78;;;6.83;48.39
50774;BME280;36745;48.544;8.918;2023-03-01T15:13:55;97419.94;;;6.90;48.81
50774;BME280;36745;48.544;8.918;2023-03-01T15:17:34;97408.81;;;7.01;49.01
50774;BME280;36745;48.544;8.918;2023-03-01T15:20:55;97415.19;;;6.94;48.76
50774;BME280;36745;48.544;8.918;2023-03-01T15:24:25;97430.38;;;6.72;48.53
50774;BME280;36745;48.544;8.918;2023-03-01T15:27:48;97430.78;;;6.40;49.29
50774;BME280;36745;48.544;8.918;2023-03-01T15:31:20;97434.63;;;6.43;49.73
50774;BME280;36745;48.544;8.918;2023-03-01T15:34:40;97421.31;;;6.45;49.67
50774;BME280;36745;48.544;8.918;2023-03-01T15:38:00;97417.59;;;6.31;50.21
50774;BME280;36745;48.544;8.918;2023-03-01T15:41:30;97402.03;;;6.25;50.20
50774;BME280;36745;48.544;8.918;2023-03-01T15:45:08;97385.53;;;6.28;50.65
50774;BME280;36745;48.544;8.918;2023-03-01T15:48:28;97383.06;;;6.07;50.69
50774;BME280;36745;48.544;8.918;2023-03-01T15:51:48;97373.28;;;6.06;51.15
50774;BME280;36745;48.544;8.918;2023-03-01T15:55:21;97381.97;;;6.01;51.17
50774;BME280;36745;48.544;8.918;2023-03-01T15:58:41;97381.19;;;6.01;51.16
50774;BME280;36745;48.544;8.918;2023-03-01T16:02:01;97382.25;;;6.10;51.30
50774;BME280;36745;48.544;8.918;2023-03-01T16:05:22;97395.16;;;6.10;51.28
50774;BME280;36745;48.544;8.918;2023-03-01T16:08:42;97388.13;;;6.09;51.32
50774;BME280;36745;48.544;8.918;2023-03-01T16:12:02;97397.53;;;6.08;51.38
50774;BME280;36745;48.544;8.918;2023-03-01T16:15:30;97396.03;;;6.03;51.38
50774;BME280;36745;48.544;8.918;2023-03-01T16:18:51;97395.28;;;5.99;51.62
50774;BME280;36745;48.544;8.918;2023-03-01T16:22:11;97393.56;;;6.12;51.66
50774;BME280;36745;48.544;8.918;2023-03-01T16:25:31;97396.38;;;6.05;51.61
50774;BME280;36745;48.544;8.918;2023-03-01T16:28:54;97393.84;;;5.84;52.01
50774;BME280;36745;48.544;8.918;2023-03-01T16:32:14;97395.63;;;5.64;52.26
50774;BME280;36745;48.544;8.918;2023-03-01T16:35:39;97404.25;;;5.59;52.38
50774;BME280;36745;48.544;8.918;2023-03-01T16:38:59;97405.53;;;5.51;52.46
50774;BME280;36745;48.544;8.918;2023-03-01T16:42:20;97418.50;;;5.39;52.84
50774;BME280;36745;48.544;8.918;2023-03-01T16:45:39;97417.75;;;5.35;53.09
50774;BME280;36745;48.544;8.918;2023-03-01T16:49:00;97419.72;;;5.31;52.79
50774;BME280;36745;48.544;8.918;2023-03-01T16:52:20;97414.22;;;5.35;52.85
50774;BME280;36745;48.544;8.918;2023-03-01T16:55:40;97419.28;;;5.36;53.03
50774;BME280;36745;48.544;8.918;2023-03-01T16:59:05;97425.59;;;5.33;52.98
50774;BME280;36745;48.544;8.918;2023-03-01T17:02:25;97437.69;;;5.32;52.83
50774;BME280;36745;48.544;8.918;2023-03-01T17:05:45;97438.97;;;5.17;53.05
50774;BME280;36745;48.544;8.918;2023-03-01T17:09:05;97445.16;;;5.28;52.76
50774;BME280;36745;48.544;8.918;2023-03-01T17:12:25;97450.28;;;5.19;52.95
50774;BME280;36745;48.544;8.918;2023-03-01T17:15:44;97454.25;;;5.11;53.07
50774;BME280;36745;48.544;8.918;2023-03-01T17:19:04;97462.44;;;5.07;53.11
50774;BME280;36745;48.544;8.918;2023-03-01T17:22:24;97456.97;;;5.11;52.77
50774;BME280;36745;48.544;8.918;2023-03-01T17:25:44;97460.91;;;5.03;52.92
50774;BME280;36745;48.544;8.918;2023-03-01T17:29:05;97466.47;;;4.89;52.85
50774;BME280;36745;48.544;8.918;2023-03-01T17:32:25;97471.22;;;4.78;52.95
50774;BME280;36745;48.544;8.918;2023-03-01T17:35:45;97479.06;;;4.69;53.39
50774;BME280;36745;48.544;8.918;2023-03-01T17:39:06;97475.56;;;4.64;53.31
50774;BME280;36745;48.544;8.918;2023-03-01T17:42:25;97473.31;;;4.52;53.70
50774;BME280;36745;48.544;8.918;2023-03-01T17:45:45;97481.50;;;4.45;53.51
50774;BME280;36745;48.544;8.918;2023-03-01T17:49:10;97477.22;;;4.44;53.73
50774;BME280;36745;48.544;8.918;2023-03-01T17:52:29;97485.41;;;4.48;53.69
50774;BME280;36745;48.544;8.918;2023-03-01T17:55:58;97493.59;;;4.44;53.67
50774;BME280;36745;48.544;8.918;2023-03-01T17:59:18;97490.09;;;4.47;53.85
50774;BME280;36745;48.544;8.918;2023-03-01T18:02:38;97484.66;;;4.33;53.84
50774;BME280;36745;48.544;8.918;2023-03-01T18:05:58;97487.81;;;4.28;53.76
50774;BME280;36745;48.544;8.918;2023-03-01T18:09:18;97483.16;;;4.25;53.91
50774;BME280;36745;48.544;8.918;2023-03-01T18:12:38;97483.16;;;4.18;54.42
50774;BME280;36745;48.544;8.918;2023-03-01T18:15:58;97483.56;;;4.20;54.51
50774;BME280;36745;48.544;8.918;2023-03-01T18:19:20;97487.06;;;4.17;54.46
50774;BME280;36745;48.544;8.918;2023-03-01T18:22:40;97479.59;;;4.35;54.52
50774;BME280;36745;48.544;8.918;2023-03-01T18:26:01;97487.38;;;4.33;54.78
50774;BME280;36745;48.544;8.918;2023-03-01T18:29:21;97481.56;;;4.31;54.54
50774;BME280;36745;48.544;8.918;2023-03-01T18:32:41;97478.06;;;4.23;54.56
50774;BME280;36745;48.544;8.918;2023-03-01T18:36:04;97478.91;;;4.03;55.26
50774;BME280;36745;48.544;8.918;2023-03-01T18:39:24;97476.22;;;3.89;55.55
50774;BME280;36745;48.544;8.918;2023-03-01T18:42:44;97484.00;;;3.97;55.48
50774;BME280;36745;48.544;8.918;2023-03-01T18:46:04;97475.44;;;3.85;56.45
50774;BME280;36745;48.544;8.918;2023-03-01T18:49:24;97470.78;;;3.82;56.09
50774;BME280;36745;48.544;8.918;2023-03-01T18:52:45;97474.66;;;3.80;56.65
50774;BME280;36745;48.544;8.918;2023-03-01T18:56:06;97468.81;;;3.75;57.27
50774;BME280;36745;48.544;8.918;2023-03-01T18:59:26;97461.44;;;3.83;56.92
50774;BME280;36745;48.544;8.918;2023-03-01T19:02:46;97462.19;;;3.79;56.70
50774;BME280;36745;48.544;8.918;2023-03-01T19:06:06;97472.34;;;3.61;57.88
50774;BME280;36745;48.544;8.918;2023-03-01T19:09:26;97462.63;;;3.60;57.66
50774;BME280;36745;48.544;8.918;2023-03-01T19:12:46;97459.88;;;3.74;57.18
50774;BME280;36745;48.544;8.918;2023-03-01T19:16:08;97449.34;;;3.69;57.68
50774;BME280;36745;48.544;8.918;2023-03-01T19:19:28;97448.16;;;3.85;57.26
50774;BME280;36745;48.544;8.918;2023-03-01T19:22:48;97443.13;;;3.69;57.30
50774;BME280;36745;48.544;8.918;2023-03-01T19:26:11;97441.97;;;3.66;57.38
50774;BME280;36745;48.544;8.918;2023-03-01T19:29:31;97442.34;;;3.68;57.42
50774;BME280;36745;48.544;8.918;2023-03-01T19:32:52;97452.88;;;3.63;57.41
50774;BME280;36745;48.544;8.918;2023-03-01T19:36:12;97443.53;;;3.64;57.20
50774;BME280;36745;48.544;8.918;2023-03-01T19:39:33;97439.25;;;3.59;57.55
50774;BME280;36745;48.544;8.918;2023-03-01T19:42:52;97445.84;;;3.62;57.63
50774;BME280;36745;48.544;8.918;2023-03-01T19:46:13;97439.25;;;3.59;57.49
50774;BME280;36745;48.544;8.918;2023-03-01T19:49:34;97439.25;;;3.59;58.01
50774;BME280;36745;48.544;8.918;2023-03-01T19:52:56;97445.09;;;3.61;58.02
50774;BME280;36745;48.544;8.918;2023-03-01T19:56:15;97446.66;;;3.55;57.66
50774;BME280;36745;48.544;8.918;2023-03-01T19:59:35;97437.31;;;3.60;57.78